Time;durP1;ratioP1;P1;durP2;ratioP2;P2;SDS_P1;SDS_P2;PMS_P1;PMS_P2;Temp;Humidity;BMP_temperature;BMP_pressure;BME280_temperature;BME280_humidity;BME280_pressure;Samples;Min_cycle;Max_cycle;Signal;HPM_P1;HPM_P2
2022/03/01 00:00:20;;;;;;;;;50.50;42.75;;;;;8.65;44.13;101890.84;5056828;28;45479;-59
2022/03/01 00:02:46;;;;;;;;;43.50;39.75;;;;;8.66;44.12;101892.59;5057708;28;45367;-58
2022/03/01 00:05:12;;;;;;;;;55.00;43.75;;;;;8.65;44.54;101882.97;5057916;28;45406;-60
2022/03/01 00:07:38;;;;;;;;;42.00;38.00;;;;;8.64;43.80;101889.97;5057749;28;45324;-59
2022/03/01 00:10:04;;;;;;;;;49.00;42.00;;;;;8.60;43.75;101888.25;5057440;28;46496;-58
2022/03/01 00:12:29;;;;;;;;;43.00;39.00;;;;;8.60;44.50;101889.13;5057748;28;45339;-59
2022/03/01 00:14:55;;;;;;;;;45.00;39.75;;;;;8.58;44.15;101887.41;5056305;28;45379;-59
2022/03/01 00:17:20;;;;;;;;;45.25;40.00;;;;;8.55;44.37;101884.78;5057742;28;45703;-59
2022/03/01 00:19:45;;;;;;;;;42.25;39.25;;;;;8.55;43.98;101883.03;5057590;28;46041;-59
2022/03/01 00:22:11;;;;;;;;;38.25;37.00;;;;;8.54;44.07;101891.81;5057460;28;45366;-59
2022/03/01 00:24:36;;;;;;;;;44.25;40.50;;;;;8.54;44.51;101889.19;5057748;28;45384;-59
2022/03/01 00:27:01;;;;;;;;;41.75;39.50;;;;;8.54;44.39;101889.19;5057564;28;45427;-59
2022/03/01 00:29:27;;;;;;;;;49.25;43.00;;;;;8.51;44.40;101883.91;5057144;28;45894;-58
2022/03/01 00:31:52;;;;;;;;;46.75;40.00;;;;;8.48;44.48;101872.59;5057374;28;45316;-59
2022/03/01 00:34:18;;;;;;;;;46.00;40.25;;;;;8.48;44.43;101873.47;5057161;28;45458;-60
2022/03/01 00:36:43;;;;;;;;;52.50;41.50;;;;;8.46;45.17;101869.09;5057281;28;45559;-59
2022/03/01 00:39:09;;;;;;;;;45.00;39.00;;;;;8.44;45.03;101871.75;5057362;28;45463;-58
2022/03/01 00:41:34;;;;;;;;;49.50;42.00;;;;;8.41;45.01;101877.03;5057123;28;45515;-58
2022/03/01 00:44:00;;;;;;;;;42.50;39.00;;;;;8.39;44.98;101863.91;5057445;28;45462;-58
2022/03/01 00:46:26;;;;;;;;;41.75;39.00;;;;;8.38;45.44;101867.38;5055981;28;45740;-59
2022/03/01 00:48:56;;;;;;;;;48.25;40.75;;;;;8.34;45.29;101865.66;5056991;28;45915;-59
2022/03/01 00:51:23;;;;;;;;;50.50;44.25;;;;;8.35;45.04;101866.50;5057216;28;45442;-58
2022/03/01 00:53:49;;;;;;;;;42.50;39.25;;;;;8.33;45.12;101874.41;5056917;28;45464;-59
2022/03/01 00:56:14;;;;;;;;;43.50;41.00;;;;;8.32;45.67;101874.41;5056827;28;45717;-59
2022/03/01 00:58:39;;;;;;;;;48.00;40.25;;;;;8.34;45.42;101875.25;5056880;28;45957;-59
2022/03/01 01:01:05;;;;;;;;;49.75;42.75;;;;;8.31;44.93;101881.41;5056866;28;45518;-59
2022/03/01 01:03:31;;;;;;;;;46.75;39.25;;;;;8.34;44.73;101880.50;5056872;28;45424;-60
2022/03/01 01:05:56;;;;;;;;;42.25;37.75;;;;;8.33;45.40;101889.25;5056821;28;45406;-58
2022/03/01 01:08:22;;;;;;;;;51.50;41.00;;;;;8.35;45.49;101883.09;5056695;28;46455;-58
2022/03/01 01:10:48;;;;;;;;;55.75;44.25;;;;;8.33;45.21;101871.78;5056521;28;45438;-60
2022/03/01 01:13:14;;;;;;;;;44.00;40.75;;;;;8.30;45.66;101865.66;5056778;28;45428;-58
2022/03/01 01:15:40;;;;;;;;;52.25;43.25;;;;;8.28;45.78;101865.69;5056509;28;45518;-59
2022/03/01 01:18:05;;;;;;;;;44.75;39.00;;;;;8.28;45.21;101867.44;5056433;28;45304;-60
2022/03/01 01:20:31;;;;;;;;;50.50;43.75;;;;;8.29;45.61;101854.31;5056583;28;45413;-59
2022/03/01 01:22:56;;;;;;;;;53.50;44.25;;;;;8.26;45.58;101858.72;5056599;28;45443;-59
2022/03/01 01:25:23;;;;;;;;;46.50;41.75;;;;;8.22;45.44;101862.22;5056588;28;45639;-62
2022/03/01 01:27:51;;;;;;;;;51.00;43.75;;;;;8.18;46.11;101864.84;5056370;28;46119;-59
2022/03/01 01:30:19;;;;;;;;;54.25;44.50;;;;;8.16;45.66;101866.59;5056348;28;45474;-59
2022/03/01 01:32:48;;;;;;;;;48.75;42.00;;;;;8.15;46.13;101862.25;5056611;28;45403;-59
2022/03/01 01:35:15;;;;;;;;;52.25;42.25;;;;;8.15;46.52;101858.78;5056460;28;45488;-59
2022/03/01 01:37:41;;;;;;;;;51.25;40.00;;;;;8.10;46.01;101853.53;5055960;28;46098;-59
2022/03/01 01:40:10;;;;;;;;;49.00;40.75;;;;;8.11;45.88;101855.31;5056272;28;45460;-58
2022/03/01 01:42:36;;;;;;;;;49.00;43.00;;;;;8.09;46.27;101862.28;5054953;28;45401;-59
2022/03/01 01:45:02;;;;;;;;;54.50;42.75;;;;;8.10;45.90;101856.16;5056168;28;45506;-60
2022/03/01 01:47:27;;;;;;;;;49.75;43.25;;;;;8.09;45.88;101857.06;5056215;28;46220;-58
2022/03/01 01:49:53;;;;;;;;;46.75;38.25;;;;;8.05;46.03;101847.44;5056092;28;45525;-59
2022/03/01 01:52:18;;;;;;;;;51.00;42.75;;;;;8.05;45.74;101851.81;5056265;28;45483;-60
2022/03/01 01:54:44;;;;;;;;;51.25;41.25;;;;;8.05;46.27;101868.41;5056099;28;45514;-59
2022/03/01 01:57:15;;;;;;;;;47.50;43.25;;;;;8.04;45.66;101866.69;5055461;28;45418;-59
2022/03/01 01:59:41;;;;;;;;;48.75;41.00;;;;;8.02;45.86;101867.56;5054838;28;45515;-59
2022/03/01 02:02:07;;;;;;;;;48.25;41.75;;;;;8.05;46.49;101867.53;5055971;28;45416;-58
2022/03/01 02:04:32;;;;;;;;;49.75;42.75;;;;;8.07;45.91;101868.41;5055859;28;45699;-60
2022/03/01 02:06:57;;;;;;;;;49.50;43.50;;;;;8.06;46.23;101869.28;5055588;28;45390;-58
2022/03/01 02:09:23;;;;;;;;;49.50;41.75;;;;;7.90;46.27;101850.16;5055813;28;45453;-58
2022/03/01 02:11:48;;;;;;;;;43.25;39.00;;;;;7.99;46.13;101863.22;5055725;28;45461;-59
2022/03/01 02:14:14;;;;;;;;;46.50;41.00;;;;;7.98;46.43;101869.34;5055784;28;45556;-59
2022/03/01 02:16:40;;;;;;;;;49.25;42.25;;;;;8.00;45.75;101864.06;5055432;28;45514;-60
2022/03/01 02:19:12;;;;;;;;;46.50;41.25;;;;;8.00;46.55;101862.31;5055747;28;45433;-60
2022/03/01 02:21:46;;;;;;;;;58.75;48.00;;;;;8.01;46.56;101864.09;5055671;28;45433;-60
2022/03/01 02:24:12;;;;;;;;;51.00;43.25;;;;;8.04;46.54;101861.44;5055682;28;45360;-59
2022/03/01 02:26:37;;;;;;;;;48.25;41.50;;;;;8.02;46.50;101857.94;5055208;28;45493;-60
2022/03/01 02:29:03;;;;;;;;;56.00;45.00;;;;;8.01;46.14;101850.97;5055350;28;45621;-60
2022/03/01 02:31:28;;;;;;;;;52.75;44.75;;;;;8.01;46.76;101858.84;5055571;28;45462;-60
2022/03/01 02:33:54;;;;;;;;;55.25;45.75;;;;;8.01;46.16;101850.97;5055488;28;45461;-59
2022/03/01 02:36:19;;;;;;;;;50.50;42.00;;;;;7.99;46.38;101851.88;5055287;28;45651;-60
2022/03/01 02:38:44;;;;;;;;;49.25;42.25;;;;;7.99;46.54;101852.72;5055280;28;45481;-58
2022/03/01 02:41:09;;;;;;;;;50.75;43.75;;;;;7.99;46.66;101850.09;5055597;28;45485;-58
2022/03/01 02:43:35;;;;;;;;;52.75;43.50;;;;;7.97;45.90;101841.38;5055438;28;45570;-59
2022/03/01 02:46:00;;;;;;;;;55.00;44.00;;;;;8.01;46.55;101850.97;5055086;28;45479;-58
2022/03/01 02:48:25;;;;;;;;;54.25;44.25;;;;;7.98;46.96;101851.00;5055546;28;45406;-59
2022/03/01 02:50:51;;;;;;;;;52.75;42.50;;;;;8.00;46.31;101858.84;5055539;28;45408;-60
2022/03/01 02:53:16;;;;;;;;;50.75;43.75;;;;;8.01;46.53;101853.59;5055343;28;45576;-59
2022/03/01 02:55:41;;;;;;;;;47.25;43.00;;;;;8.00;46.71;101858.84;5055045;28;45365;-59
2022/03/01 02:58:07;;;;;;;;;51.25;44.25;;;;;7.97;46.32;101855.34;5055227;28;45390;-60
2022/03/01 03:00:32;;;;;;;;;55.00;45.75;;;;;8.00;46.50;101864.94;5055489;28;45388;-59
2022/03/01 03:02:58;;;;;;;;;51.25;42.75;;;;;7.97;46.82;101867.56;5055587;28;45377;-59
2022/03/01 03:05:23;;;;;;;;;54.50;44.25;;;;;8.02;45.83;101865.81;5053876;28;46439;-59
2022/03/01 03:07:49;;;;;;;;;53.75;43.50;;;;;8.03;45.94;101866.69;5055325;28;45443;-59
2022/03/01 03:10:14;;;;;;;;;47.50;42.50;;;;;8.03;46.24;101870.16;5056666;28;45376;-61
2022/03/01 03:12:40;;;;;;;;;52.25;44.75;;;;;8.03;46.40;101864.91;5057732;28;45606;-60
2022/03/01 03:15:06;;;;;;;;;54.00;42.75;;;;;8.05;46.75;101872.78;5058490;28;45403;-60
2022/03/01 03:17:32;;;;;;;;;56.25;46.50;;;;;8.04;45.95;101865.81;5058564;28;45449;-58
2022/03/01 03:19:57;;;;;;;;;51.00;44.25;;;;;8.03;46.17;101862.31;5058747;28;45382;-59
2022/03/01 03:22:22;;;;;;;;;52.00;45.25;;;;;8.00;46.72;101869.31;5058617;28;45317;-59
2022/03/01 03:24:48;;;;;;;;;50.75;44.00;;;;;8.00;46.49;101862.31;5058374;28;46282;-59
2022/03/01 03:27:13;;;;;;;;;50.75;41.75;;;;;7.97;46.32;101860.59;5058267;28;45502;-60
2022/03/01 03:29:38;;;;;;;;;53.75;44.75;;;;;7.99;46.08;101859.72;5058389;28;45876;-60
2022/03/01 03:32:04;;;;;;;;;57.25;45.00;;;;;7.98;46.16;101861.47;5057338;28;45545;-59
2022/03/01 03:34:29;;;;;;;;;52.25;45.50;;;;;7.97;46.20;101859.72;5058345;28;46206;-58
2022/03/01 03:36:55;;;;;;;;;53.75;46.50;;;;;7.93;46.50;101858.00;5058347;28;45434;-59
2022/03/01 03:39:21;;;;;;;;;59.50;48.25;;;;;7.99;46.79;101859.72;5058316;28;45456;-58
2022/03/01 03:41:47;;;;;;;;;50.75;43.75;;;;;7.99;46.27;101862.34;5058413;28;45404;-61
2022/03/01 03:44:12;;;;;;;;;57.50;46.00;;;;;7.99;46.55;101850.09;5058172;28;45431;-60
2022/03/01 03:46:37;;;;;;;;;57.75;47.50;;;;;7.95;46.26;101846.66;5058249;28;45504;-58
2022/03/01 03:49:03;;;;;;;;;51.25;41.00;;;;;7.87;46.83;101837.94;5058296;28;45386;-59
2022/03/01 03:51:29;;;;;;;;;49.00;43.25;;;;;7.89;46.60;101846.66;5058200;28;45408;-60
2022/03/01 03:53:55;;;;;;;;;53.00;46.75;;;;;7.88;46.85;101844.91;5056670;28;45408;-59
2022/03/01 03:56:20;;;;;;;;;54.75;44.50;;;;;7.88;47.09;101846.66;5057833;28;45404;-59
2022/03/01 03:58:45;;;;;;;;;47.50;41.50;;;;;7.84;46.91;101847.53;5058177;28;45392;-60
2022/03/01 04:01:11;;;;;;;;;57.00;47.00;;;;;7.81;47.28;101847.56;5058193;28;45638;-60
2022/03/01 04:03:37;;;;;;;;;58.25;49.50;;;;;7.83;47.37;101851.06;5057711;28;45415;-60
2022/03/01 04:06:02;;;;;;;;;59.00;47.25;;;;;7.80;47.32;101848.44;5057757;28;45363;-60
2022/03/01 04:08:28;;;;;;;;;64.00;52.25;;;;;7.75;47.65;101846.72;5058030;28;45406;-60
2022/03/01 04:10:56;;;;;;;;;60.00;50.25;;;;;7.73;48.66;101845.84;5057688;28;45477;-59
2022/03/01 04:13:22;;;;;;;;;58.75;48.00;;;;;7.66;48.32;101833.66;5057784;28;45470;-59
2022/03/01 04:15:48;;;;;;;;;62.50;49.00;;;;;7.65;48.53;101826.66;5057698;28;45501;-59
2022/03/01 04:18:13;;;;;;;;;57.75;46.00;;;;;7.61;48.50;101824.94;5057675;28;45372;-58
2022/03/01 04:20:39;;;;;;;;;57.50;48.75;;;;;7.53;48.33;101816.25;5057323;28;47923;-59
2022/03/01 04:23:05;;;;;;;;;58.50;48.75;;;;;7.48;48.50;101818.00;5057370;28;45349;-59
2022/03/01 04:25:30;;;;;;;;;64.00;51.25;;;;;7.46;48.40;101831.09;5056369;28;45729;-60
2022/03/01 04:27:56;;;;;;;;;59.25;48.75;;;;;7.48;49.04;101826.72;5057648;28;45342;-59
2022/03/01 04:30:21;;;;;;;;;60.25;49.50;;;;;7.49;48.82;101836.31;5057551;28;45390;-60
2022/03/01 04:32:46;;;;;;;;;56.75;45.75;;;;;7.58;48.12;101839.81;5057289;28;45422;-60
2022/03/01 04:35:13;;;;;;;;;58.00;48.25;;;;;7.63;48.12;101840.63;5057678;28;45379;-59
2022/03/01 04:37:40;;;;;;;;;57.00;47.00;;;;;7.66;47.57;101838.91;5057314;28;45540;-59
2022/03/01 04:40:08;;;;;;;;;55.00;47.50;;;;;7.65;47.93;101833.66;5057519;28;45416;-60
2022/03/01 04:42:34;;;;;;;;;50.75;43.25;;;;;7.69;47.94;101841.50;5057251;28;47714;-60
2022/03/01 04:45:00;;;;;;;;;58.25;46.00;;;;;7.67;47.71;101837.13;5057188;28;45497;-59
2022/03/01 04:47:26;;;;;;;;;55.00;46.50;;;;;7.66;47.41;101833.66;5057284;28;45447;-58
2022/03/01 04:49:51;;;;;;;;;47.75;41.50;;;;;7.67;47.34;101834.53;5057238;28;45414;-59
2022/03/01 04:52:17;;;;;;;;;45.25;41.25;;;;;7.68;47.53;101845.00;5057064;28;45444;-59
2022/03/01 04:54:43;;;;;;;;;49.25;41.75;;;;;7.62;47.52;101844.13;5056958;28;45446;-59
2022/03/01 04:57:08;;;;;;;;;55.25;45.00;;;;;7.59;47.96;101852.00;5057270;28;45580;-59
2022/03/01 04:59:33;;;;;;;;;58.00;46.00;;;;;7.64;47.70;101850.25;5057204;28;45638;-60
2022/03/01 05:01:59;;;;;;;;;46.25;42.25;;;;;7.66;47.81;101840.66;5057175;28;45947;-60
2022/03/01 05:04:24;;;;;;;;;49.00;43.25;;;;;7.66;47.77;101841.50;5056943;28;45466;-60
2022/03/01 05:06:50;;;;;;;;;54.50;44.25;;;;;7.64;47.75;101843.25;5057042;28;45619;-59
2022/03/01 05:09:15;;;;;;;;;45.75;38.25;;;;;7.59;47.61;101834.53;5057016;28;45532;-58
2022/03/01 05:11:41;;;;;;;;;48.75;43.25;;;;;7.59;47.86;101831.06;5055541;28;47877;-59
2022/03/01 05:14:06;;;;;;;;;56.25;45.75;;;;;7.57;47.96;101824.94;5056938;28;45640;-60
2022/03/01 05:16:32;;;;;;;;;51.50;43.50;;;;;7.59;47.81;101826.69;5056923;28;45429;-58
2022/03/01 05:18:57;;;;;;;;;59.25;48.25;;;;;7.57;47.83;101833.66;5055707;28;45651;-60
2022/03/01 05:21:23;;;;;;;;;50.25;44.00;;;;;7.55;48.02;101837.16;5056831;28;45522;-59
2022/03/01 05:23:48;;;;;;;;;59.75;46.25;;;;;7.55;48.30;101824.06;5056526;28;45334;-58
2022/03/01 05:26:14;;;;;;;;;52.00;45.25;;;;;7.58;47.85;101831.94;5056835;28;45470;-60
2022/03/01 05:28:39;;;;;;;;;57.00;45.25;;;;;7.58;48.35;101824.09;5056901;28;45343;-59
2022/03/01 05:31:05;;;;;;;;;56.50;47.75;;;;;7.62;47.99;101831.03;5056584;28;45399;-58
2022/03/01 05:33:31;;;;;;;;;49.25;44.50;;;;;7.65;48.33;101829.28;5055843;28;45439;-59
2022/03/01 05:35:57;;;;;;;;;52.25;44.50;;;;;7.67;47.93;101824.91;5056915;28;45390;-60
2022/03/01 05:38:23;;;;;;;;;52.25;44.25;;;;;7.66;47.80;101824.94;5056525;28;45450;-60
2022/03/01 05:40:49;;;;;;;;;58.50;47.00;;;;;7.68;48.04;101831.91;5056167;28;45518;-60
2022/03/01 05:43:14;;;;;;;;;57.00;44.75;;;;;7.62;48.36;101831.91;5056409;28;45466;-60
2022/03/01 05:45:41;;;;;;;;;52.50;44.50;;;;;7.66;48.65;101820.56;5056447;28;45493;-60
2022/03/01 05:48:07;;;;;;;;;55.50;47.25;;;;;7.69;48.55;101819.69;5056484;28;45477;-58
2022/03/01 05:50:32;;;;;;;;;56.25;47.50;;;;;7.70;48.57;101818.78;5056366;28;45494;-59
2022/03/01 05:52:57;;;;;;;;;50.25;40.50;;;;;7.70;48.30;101819.66;5055007;28;45669;-59
2022/03/01 05:55:23;;;;;;;;;54.50;45.25;;;;;7.69;48.44;101832.78;5056416;28;45445;-59
2022/03/01 05:57:49;;;;;;;;;60.75;48.25;;;;;7.64;48.46;101822.31;5056154;28;45441;-59
2022/03/01 06:00:17;;;;;;;;;54.00;45.00;;;;;7.62;48.33;101820.56;5056016;28;46004;-59
2022/03/01 06:02:43;;;;;;;;;58.00;47.75;;;;;7.63;48.29;101819.69;5056034;28;45420;-60
2022/03/01 06:05:11;;;;;;;;;57.00;47.25;;;;;7.66;48.53;101824.94;5056500;28;45455;-60
2022/03/01 06:07:37;;;;;;;;;58.00;48.00;;;;;7.65;49.04;101816.19;5056195;28;45444;-60
2022/03/01 06:10:02;;;;;;;;;54.75;45.25;;;;;7.65;48.58;101820.56;5055641;28;46186;-60
2022/03/01 06:12:28;;;;;;;;;56.75;48.00;;;;;7.64;48.65;101824.06;5055816;28;45386;-60
2022/03/01 06:14:53;;;;;;;;;54.00;46.25;;;;;7.65;48.46;101815.31;5056025;28;45355;-59
2022/03/01 06:17:18;;;;;;;;;53.25;45.25;;;;;7.64;48.30;101819.69;5056086;28;45565;-59
2022/03/01 06:19:44;;;;;;;;;57.25;47.00;;;;;7.64;48.11;101826.69;5055735;28;45823;-60
2022/03/01 06:22:09;;;;;;;;;57.75;48.25;;;;;7.62;48.17;101818.81;5055745;28;45367;-60
2022/03/01 06:24:40;;;;;;;;;40.75;33.50;;;;;7.62;48.66;101829.28;5055960;28;45585;-59
2022/03/01 06:27:06;;;;;;;;;60.25;47.50;;;;;7.60;48.92;101830.19;5055945;28;45505;-60
2022/03/01 06:29:32;;;;;;;;;55.25;46.50;;;;;7.60;48.64;101838.88;5055661;28;45502;-59
2022/03/01 06:31:57;;;;;;;;;52.75;45.00;;;;;7.59;48.30;101838.91;5055589;28;45481;-60
2022/03/01 06:34:22;;;;;;;;;59.50;49.25;;;;;7.59;48.45;101837.16;5055834;28;45943;-59
2022/03/01 06:36:48;;;;;;;;;58.25;46.75;;;;;7.61;48.75;101843.28;5055650;28;45568;-59
2022/03/01 06:39:13;;;;;;;;;51.00;45.00;;;;;7.62;48.35;101842.38;5055264;28;46678;-59
2022/03/01 06:41:38;;;;;;;;;52.75;42.75;;;;;7.65;48.54;101855.47;5055379;28;45452;-61
2022/03/01 06:44:04;;;;;;;;;54.75;46.50;;;;;7.67;48.61;101856.34;5054516;28;45382;-59
2022/03/01 06:46:29;;;;;;;;;57.75;44.25;;;;;7.67;48.69;101851.09;5055279;28;45442;-58
2022/03/01 06:48:55;;;;;;;;;54.00;43.50;;;;;7.68;48.51;101854.59;5054994;28;45506;-58
2022/03/01 06:51:20;;;;;;;;;54.00;44.00;;;;;7.68;48.58;101846.72;5055353;28;45391;-60
2022/03/01 06:53:46;;;;;;;;;56.00;44.50;;;;;7.71;48.11;101860.69;5055412;28;45395;-60
2022/03/01 06:56:11;;;;;;;;;46.00;40.75;;;;;7.75;47.73;101864.16;5055230;28;45370;-59
2022/03/01 06:58:36;;;;;;;;;51.25;44.25;;;;;7.80;47.94;101865.03;5055217;28;45418;-60
2022/03/01 07:01:03;;;;;;;;;52.25;42.50;;;;;7.84;47.96;101866.75;5055217;28;45395;-58
2022/03/01 07:03:28;;;;;;;;;49.75;43.50;;;;;7.88;47.74;101865.88;5055254;28;45485;-60
2022/03/01 07:05:53;;;;;;;;;61.75;48.25;;;;;7.86;48.24;101872.00;5055303;28;45456;-58
2022/03/01 07:08:23;;;;;;;;;56.00;46.75;;;;;7.77;47.88;101872.03;5054853;28;45949;-58
2022/03/01 07:10:49;;;;;;;;;57.75;46.75;;;;;7.79;47.55;101878.13;5055035;28;45474;-59
2022/03/01 07:13:15;;;;;;;;;56.00;42.75;;;;;7.78;48.22;101872.00;5053882;28;45402;-58
2022/03/01 07:15:41;;;;;;;;;60.50;48.75;;;;;7.81;48.22;101879.00;5054927;28;45378;-60
2022/03/01 07:18:06;;;;;;;;;52.75;44.50;;;;;7.85;48.25;101881.59;5055034;28;45462;-60
2022/03/01 07:20:32;;;;;;;;;56.25;46.25;;;;;7.87;47.80;101878.97;5055022;28;45486;-59
2022/03/01 07:22:57;;;;;;;;;52.50;42.75;;;;;7.88;48.00;101884.22;5055248;28;45426;-60
2022/03/01 07:25:23;;;;;;;;;57.00;46.25;;;;;7.91;47.88;101888.56;5054972;28;45682;-59
2022/03/01 07:27:50;;;;;;;;;58.50;49.75;;;;;7.91;48.18;101883.31;5054685;28;46120;-58
2022/03/01 07:30:18;;;;;;;;;60.75;50.00;;;;;7.89;48.02;101880.69;5054776;28;45627;-60
2022/03/01 07:32:43;;;;;;;;;61.00;49.50;;;;;7.90;48.17;101873.75;5054938;28;45537;-57
2022/03/01 07:35:09;;;;;;;;;59.50;49.75;;;;;7.91;48.18;101875.47;5055031;28;45442;-59
2022/03/01 07:37:36;;;;;;;;;58.75;48.25;;;;;7.90;48.60;101881.59;5054487;28;46001;-60
2022/03/01 07:40:02;;;;;;;;;61.25;49.00;;;;;7.89;48.37;101879.84;5054793;28;45449;-59
2022/03/01 07:42:27;;;;;;;;;59.00;46.50;;;;;7.88;48.10;101871.09;5054848;28;45482;-60
2022/03/01 07:44:53;;;;;;;;;60.25;50.25;;;;;7.92;48.46;101880.69;5054877;28;45568;-59
2022/03/01 07:47:18;;;;;;;;;60.00;49.75;;;;;7.91;48.83;101881.56;5054609;28;45347;-58
2022/03/01 07:49:43;;;;;;;;;58.25;49.00;;;;;7.95;48.70;101880.69;5054629;28;45418;-60
2022/03/01 07:52:10;;;;;;;;;58.50;47.75;;;;;7.94;48.73;101871.06;5054481;28;45472;-60
2022/03/01 07:54:35;;;;;;;;;58.00;47.00;;;;;7.96;48.90;101879.81;5053212;28;45463;-59
2022/03/01 07:57:00;;;;;;;;;59.00;48.75;;;;;7.97;48.17;101878.91;5056869;28;46258;-59
2022/03/01 07:59:26;;;;;;;;;63.50;49.75;;;;;7.99;48.63;101880.69;5057809;28;45516;-60
2022/03/01 08:01:51;;;;;;;;;59.50;47.50;;;;;8.03;48.38;101877.16;5058069;28;45401;-59
2022/03/01 08:04:17;;;;;;;;;60.75;49.00;;;;;8.05;48.61;101883.28;5057973;28;45579;-59
2022/03/01 08:06:42;;;;;;;;;57.50;48.00;;;;;8.06;48.16;101880.66;5057571;28;46730;-58
2022/03/01 08:09:08;;;;;;;;;58.25;47.00;;;;;8.07;47.59;101889.38;5057681;28;45461;-60
2022/03/01 08:11:34;;;;;;;;;61.50;48.00;;;;;8.06;47.93;101885.91;5057408;28;45535;-60
2022/03/01 08:13:59;;;;;;;;;55.75;46.00;;;;;8.07;47.11;101877.16;5057729;28;45580;-57
2022/03/01 08:16:24;;;;;;;;;58.25;49.00;;;;;8.14;47.85;101880.59;5057463;28;46594;-57
2022/03/01 08:18:50;;;;;;;;;60.50;50.00;;;;;8.18;47.61;101880.56;5057567;28;45461;-59
2022/03/01 08:21:15;;;;;;;;;63.00;48.50;;;;;8.17;48.25;101878.00;5057650;28;45430;-59
2022/03/01 08:23:42;;;;;;;;;60.00;48.00;;;;;8.19;47.72;101890.19;5057587;28;45528;-57
2022/03/01 08:26:08;;;;;;;;;61.50;48.00;;;;;8.21;47.91;101890.19;5057378;28;46114;-57
2022/03/01 08:28:33;;;;;;;;;53.00;44.50;;;;;8.21;48.04;101881.44;5057683;28;45485;-58
2022/03/01 08:30:59;;;;;;;;;58.50;48.50;;;;;8.19;47.76;101887.59;5057651;28;45722;-58
2022/03/01 08:33:25;;;;;;;;;61.50;51.00;;;;;8.21;48.14;101884.94;5057367;27;45698;-59
2022/03/01 08:35:51;;;;;;;;;61.75;48.00;;;;;8.21;48.35;101879.69;5057217;28;45461;-58
2022/03/01 08:38:17;;;;;;;;;62.50;50.25;;;;;8.25;48.04;101886.69;5056808;28;45476;-59
2022/03/01 08:40:43;;;;;;;;;61.25;51.50;;;;;8.30;48.70;101882.28;5056690;28;45399;-59
2022/03/01 08:43:10;;;;;;;;;62.50;51.50;;;;;8.35;49.00;101880.47;5056948;28;45367;-58
2022/03/01 08:45:35;;;;;;;;;60.50;49.25;;;;;8.40;47.82;101876.13;5056684;28;46057;-60
2022/03/01 08:48:03;;;;;;;;;57.50;48.75;;;;;8.45;48.59;101881.34;5056714;28;45476;-60
2022/03/01 08:50:29;;;;;;;;;58.50;47.50;;;;;8.49;47.54;101877.84;5057205;28;45472;-60
2022/03/01 08:52:55;;;;;;;;;64.50;51.50;;;;;8.53;48.05;101884.78;5056846;28;45596;-60
2022/03/01 08:55:20;;;;;;;;;54.75;43.25;;;;;8.59;47.87;101887.38;5056884;28;46224;-60
2022/03/01 08:57:45;;;;;;;;;59.00;47.75;;;;;8.63;47.60;101890.84;5056670;28;45434;-60
2022/03/01 09:00:13;;;;;;;;;58.00;47.75;;;;;8.66;46.98;101893.47;5057000;28;45441;-60
2022/03/01 09:02:38;;;;;;;;;49.25;40.25;;;;;8.71;47.64;101901.31;5057115;28;45430;-60
2022/03/01 09:05:05;;;;;;;;;54.75;43.50;;;;;8.74;47.21;101901.28;5056855;28;45462;-59
2022/03/01 09:07:32;;;;;;;;;55.25;44.50;;;;;8.74;46.99;101882.91;5055703;28;45544;-59
2022/03/01 09:09:57;;;;;;;;;55.50;46.00;;;;;8.78;46.66;101895.97;5056530;28;45469;-60
2022/03/01 09:12:23;;;;;;;;;57.00;46.50;;;;;8.81;46.80;101906.47;5056687;28;45527;-60
2022/03/01 09:14:48;;;;;;;;;64.50;49.50;;;;;8.85;47.21;101910.81;5056585;28;46161;-60
2022/03/01 09:17:13;;;;;;;;;50.25;43.25;;;;;8.88;47.08;101898.56;5056584;28;45475;-60
2022/03/01 09:19:39;;;;;;;;;58.25;48.00;;;;;8.91;46.91;101891.53;5055312;28;45462;-59
2022/03/01 09:22:04;;;;;;;;;58.50;47.75;;;;;8.95;47.53;101901.13;5056621;28;45493;-59
2022/03/01 09:24:29;;;;;;;;;60.50;47.25;;;;;8.93;46.94;101905.50;5056332;28;45410;-59
2022/03/01 09:26:57;;;;;;;;;60.25;47.50;;;;;8.93;46.97;101884.50;5056434;28;45479;-60
2022/03/01 09:29:23;;;;;;;;;58.25;47.50;;;;;8.96;46.49;101892.34;5055308;28;45430;-58
2022/03/01 09:31:48;;;;;;;;;68.25;54.25;;;;;8.97;47.23;101890.59;5056405;28;45688;-59
2022/03/01 09:34:13;;;;;;;;;78.00;60.75;;;;;8.99;46.98;101889.72;5056508;28;45410;-60
2022/03/01 09:36:39;;;;;;;;;63.00;52.00;;;;;8.98;46.92;101885.34;5056180;28;45445;-59
2022/03/01 09:39:04;;;;;;;;;67.50;51.25;;;;;9.02;47.21;101884.44;5056105;28;46071;-59
2022/03/01 09:41:32;;;;;;;;;58.25;50.00;;;;;9.04;47.32;101880.03;5056416;28;45464;-60
2022/03/01 09:43:58;;;;;;;;;64.50;52.50;;;;;9.06;47.43;101877.41;5056079;28;45477;-58
2022/03/01 09:46:24;;;;;;;;;57.50;48.25;;;;;9.05;46.96;101866.06;5056208;28;45602;-60
2022/03/01 09:48:50;;;;;;;;;62.75;51.00;;;;;9.07;47.24;101871.28;5056266;28;45445;-59
2022/03/01 09:51:19;;;;;;;;;58.75;48.75;;;;;9.09;46.87;101873.91;5056210;28;45579;-59
2022/03/01 09:53:47;;;;;;;;;57.00;47.25;;;;;9.13;46.94;101870.34;5055879;28;46029;-60
2022/03/01 09:56:13;;;;;;;;;60.75;50.00;;;;;9.14;47.01;101864.25;5055922;28;45452;-60
2022/03/01 09:58:39;;;;;;;;;61.50;50.50;;;;;9.16;47.01;101878.19;5056339;28;45371;-60
2022/03/01 10:01:04;;;;;;;;;64.50;52.00;;;;;9.19;47.39;101888.69;5056155;28;45485;-60
2022/03/01 10:03:33;;;;;;;;;67.25;52.00;;;;;9.21;47.12;101889.53;5055768;28;46042;-59
2022/03/01 10:06:09;;;;;;;;;63.75;52.00;;;;;9.21;47.11;101892.16;5055750;27;45560;-60
2022/03/01 10:08:35;;;;;;;;;65.25;50.50;;;;;9.23;46.63;101891.25;5055582;28;45462;-59
2022/03/01 10:11:01;;;;;;;;;62.00;52.25;;;;;9.31;47.16;101885.94;5055626;28;45604;-60
2022/03/01 10:13:34;;;;;;;;;65.25;52.75;;;;;9.39;46.78;101885.88;5055589;28;45437;-60
2022/03/01 10:16:05;;;;;;;;;62.75;52.25;;;;;9.57;46.79;101895.34;5055700;28;45514;-59
2022/03/01 10:18:33;;;;;;;;;67.25;53.50;;;;;9.81;46.28;101892.44;5055487;28;45459;-59
2022/03/01 10:21:09;;;;;;;;;62.25;52.00;;;;;10.12;45.76;101897.31;5055682;28;45353;-59
2022/03/01 10:23:35;;;;;;;;;62.75;51.00;;;;;10.23;45.68;101905.06;5054004;28;46505;-61
2022/03/01 10:26:19;;;;;;;;;61.75;48.50;;;;;10.28;44.67;101900.66;5054506;28;45485;-59
2022/03/01 10:28:46;;;;;;;;;57.00;47.25;;;;;10.21;44.82;101889.31;5055285;28;45395;-59
2022/03/01 10:31:25;;;;;;;;;57.50;47.75;;;;;10.32;45.04;101892.69;5055422;28;45394;-60
2022/03/01 10:34:10;;;;;;;;;52.75;44.75;;;;;10.41;45.04;101881.19;5055410;28;45554;-58
2022/03/01 10:36:50;;;;;;;;;57.50;46.25;;;;;10.45;45.08;101876.75;5055160;28;45619;-60
2022/03/01 10:39:26;;;;;;;;;57.25;45.75;;;;;10.52;44.62;101875.75;5055245;28;45397;-59
2022/03/01 10:41:52;;;;;;;;;60.25;49.00;;;;;10.60;44.64;101872.13;5055240;28;45435;-59
2022/03/01 10:44:27;;;;;;;;;52.75;44.50;;;;;10.62;44.78;101869.47;5055122;28;45462;-60
2022/03/01 10:46:59;;;;;;;;;54.75;45.50;;;;;10.69;43.90;101881.63;5054956;28;45486;-60
2022/03/01 10:49:26;;;;;;;;;59.25;48.00;;;;;10.65;43.87;101879.97;5054482;28;45409;-59
2022/03/01 10:51:53;;;;;;;;;58.50;49.00;;;;;10.68;44.12;101882.53;5055085;28;45699;-60
2022/03/01 10:54:34;;;;;;;;;57.75;47.00;;;;;10.67;43.70;101879.94;5054867;28;45344;-60
2022/03/01 10:57:02;;;;;;;;;51.75;44.00;;;;;10.67;43.66;101877.31;5054907;28;45424;-60
2022/03/01 10:59:30;;;;;;;;;56.50;46.00;;;;;10.69;43.90;101871.09;5054965;28;45434;-60
2022/03/01 11:01:56;;;;;;;;;50.75;42.50;;;;;10.70;43.94;101864.97;5055084;28;45574;-57
2022/03/01 11:04:24;;;;;;;;;54.75;45.00;;;;;10.74;44.33;101860.53;5054506;28;46194;-60
2022/03/01 11:06:51;;;;;;;;;59.25;49.25;;;;;10.78;44.08;101852.56;5053413;28;45372;-60
2022/03/01 11:09:17;;;;;;;;;58.00;48.75;;;;;10.87;44.63;101855.94;5054468;28;45442;-60
2022/03/01 11:11:44;;;;;;;;;50.25;41.75;;;;;10.92;44.46;101851.47;5054477;28;45455;-64